Time;durP1;ratioP1;P1;durP2;ratioP2;P2;SDS_P1;SDS_P2;PMS_P1;PMS_P2;Temp;Humidity;BMP_temperature;BMP_pressure;BME280_temperature;BME280_humidity;BME280_pressure;Samples;Min_cycle;Max_cycle;Signal;HPM_P1;HPM_P2
2023/07/06 00:02:03;;;;;;;11.07;5.37;;;;;;;19.43;81.21;99992.88;4212134;28;20236;-65
2023/07/06 00:04:30;;;;;;;14.67;4.77;;;;;;;19.46;81.05;99986.97;4208003;28;20235;-67
2023/07/06 00:06:56;;;;;;;9.33;4.63;;;;;;;19.45;81.13;99989.91;4201391;28;23175;-64
2023/07/06 00:09:23;;;;;;;8.80;5.13;;;;;;;19.35;81.36;99989.56;4208721;28;21177;-66
2023/07/06 00:11:51;;;;;;;9.30;4.83;;;;;;;19.37;81.29;99992.94;4213964;28;20234;-65
2023/07/06 00:14:17;;;;;;;8.27;4.83;;;;;;;19.54;80.37;99998.78;4203810;28;23623;-66
2023/07/06 00:16:47;;;;;;;8.43;4.70;;;;;;;19.66;79.02;99996.19;4203456;28;21163;-65
2023/07/06 00:19:18;;;;;;;11.10;4.70;;;;;;;19.84;77.67;100007.31;4215538;28;20349;-66
2023/07/06 00:21:45;;;;;;;8.90;4.50;;;;;;;19.78;77.81;100006.28;4215430;28;20235;-65
2023/07/06 00:24:12;;;;;;;8.20;4.57;;;;;;;19.78;78.29;100003.53;4202555;28;20240;-66
2023/07/06 00:26:38;;;;;;;6.73;4.23;;;;;;;19.83;77.13;100004.75;4199506;28;20623;-67
2023/07/06 00:29:05;;;;;;;11.50;5.00;;;;;;;19.85;76.93;99998.00;4214144;28;20232;-65
2023/07/06 00:31:32;;;;;;;7.03;4.03;;;;;;;19.90;76.57;99991.88;4214783;28;20235;-65
2023/07/06 00:34:03;;;;;;;7.53;4.77;;;;;;;19.66;77.18;99997.03;4210132;28;20227;-64
2023/07/06 00:36:37;;;;;;;6.40;3.63;;;;;;;19.84;76.10;99990.84;4201936;28;20261;-67
2023/07/06 00:39:04;;;;;;;8.27;4.37;;;;;;;19.80;76.43;99990.41;4208550;28;20340;-66
2023/07/06 00:41:32;;;;;;;8.97;3.93;;;;;;;19.77;76.29;99992.75;4215001;28;20283;-64
2023/07/06 00:43:59;;;;;;;7.97;3.43;;;;;;;19.74;75.77;99994.03;4207133;28;20500;-65
2023/07/06 00:46:29;;;;;;;7.13;4.10;;;;;;;19.75;76.02;99990.22;4208450;28;20470;-65
2023/07/06 00:48:57;;;;;;;10.97;3.57;;;;;;;19.81;75.79;99988.50;4208595;28;20580;-66
2023/07/06 00:51:32;;;;;;;8.33;4.20;;;;;;;19.73;76.61;99991.50;4203357;28;20274;-65
2023/07/06 00:54:04;;;;;;;9.40;4.37;;;;;;;19.82;76.60;99994.84;4204747;28;20448;-65
2023/07/06 00:56:38;;;;;;;7.03;3.87;;;;;;;19.78;76.50;99980.69;4192582;28;22032;-66
2023/07/06 00:59:06;;;;;;;6.13;3.73;;;;;;;19.68;76.42;99985.81;4208236;28;20267;-66
2023/07/06 01:01:35;;;;;;;9.10;3.70;;;;;;;19.70;75.89;99984.56;4209332;28;21304;-66
2023/07/06 01:04:03;;;;;;;8.73;3.60;;;;;;;19.66;76.10;99980.53;4190226;28;25377;-65
2023/07/06 01:06:34;;;;;;;7.93;3.90;;;;;;;19.78;75.15;99978.81;4202770;28;20236;-65
2023/07/06 01:09:04;;;;;;;6.43;3.47;;;;;;;19.81;74.82;99974.78;4212259;28;20284;-65
2023/07/06 01:11:32;;;;;;;8.67;3.93;;;;;;;19.61;75.91;99974.88;4210769;28;20364;-67
2023/07/06 01:13:58;;;;;;;7.40;3.20;;;;;;;19.61;76.16;99974.88;4208885;28;23262;-66
2023/07/06 01:17:00;;;;;;;6.23;3.87;;;;;;;19.53;77.68;99972.38;4208294;28;20962;-66
2023/07/06 01:19:53;;;;;;;5.60;3.40;;;;;;;19.60;76.61;99975.94;4207454;28;20771;-66
2023/07/06 01:22:56;;;;;;;6.50;3.93;;;;;;;19.65;75.93;99981.59;4225431;28;20294;-65
2023/07/06 01:25:23;;;;;;;9.63;3.90;;;;;;;19.54;75.95;99976.81;4205819;28;20771;-68
2023/07/06 01:28:05;;;;;;;7.80;3.83;;;;;;;19.52;76.27;99967.94;4211190;28;20384;-66
2023/07/06 01:30:54;;;;;;;8.40;3.90;;;;;;;19.53;76.05;99967.72;4215438;28;20235;-65
2023/07/06 01:33:31;;;;;;;6.83;3.40;;;;;;;19.41;76.46;99966.72;4227147;28;25831;-66
2023/07/06 01:36:03;;;;;;;7.23;3.90;;;;;;;19.27;77.62;99972.25;4200836;28;20338;-66
2023/07/06 01:38:29;;;;;;;12.10;4.13;;;;;;;19.09;78.60;99964.72;4192287;28;20232;-65
2023/07/06 01:40:57;;;;;;;8.10;4.40;;;;;;;18.85;79.69;99975.28;4211402;28;21803;-67
2023/07/06 01:43:25;;;;;;;6.33;3.77;;;;;;;18.99;78.54;99975.28;4219696;28;20252;-66
2023/07/06 01:45:53;;;;;;;7.33;4.17;;;;;;;19.13;78.17;99968.72;4206201;28;20358;-66
2023/07/06 01:48:21;;;;;;;8.63;3.67;;;;;;;19.08;78.61;99974.00;4211553;28;20279;-66
2023/07/06 01:51:18;;;;;;;6.27;3.83;;;;;;;18.80;79.74;99961.38;4212152;28;21692;-66
2023/07/06 01:53:58;;;;;;;9.20;4.13;;;;;;;18.74;80.23;99954.00;4221993;28;20245;-65
2023/07/06 01:56:34;;;;;;;8.43;4.03;;;;;;;18.67;80.41;99958.63;4196813;28;20239;-65
2023/07/06 01:59:03;;;;;;;8.87;4.03;;;;;;;18.62;80.71;99955.69;4191047;28;22755;-64
2023/07/06 02:01:36;;;;;;;7.17;4.10;;;;;;;18.54;80.89;99965.00;4206290;28;20236;-68
2023/07/06 02:04:03;;;;;;;8.43;4.83;;;;;;;18.40;81.80;99969.63;4201842;28;20600;-65
2023/07/06 02:06:30;;;;;;;8.37;4.40;;;;;;;18.31;82.35;99968.16;4210931;28;21176;-66
2023/07/06 02:08:57;;;;;;;8.00;4.60;;;;;;;18.26;82.61;99968.78;4206882;28;20236;-67
2023/07/06 02:11:24;;;;;;;7.93;4.23;;;;;;;18.27;82.45;99964.97;4213118;28;20322;-66
2023/07/06 02:13:52;;;;;;;12.13;4.77;;;;;;;18.08;83.68;99963.06;4213827;28;25425;-66
2023/07/06 02:16:18;;;;;;;8.77;4.40;;;;;;;18.06;84.02;99963.25;4197279;28;21077;-67
2023/07/06 02:18:45;;;;;;;10.60;5.07;;;;;;;18.02;83.99;99956.53;4214699;28;20591;-65
2023/07/06 02:21:13;;;;;;;9.83;4.57;;;;;;;18.00;84.30;99958.63;4211949;28;21216;-66
2023/07/06 02:23:40;;;;;;;9.10;4.80;;;;;;;18.00;84.17;99959.50;4211338;28;21191;-65
2023/07/06 02:26:06;;;;;;;8.83;5.20;;;;;;;18.01;83.85;99957.56;4203077;28;20241;-66
2023/07/06 02:28:35;;;;;;;8.87;4.97;;;;;;;17.88;84.79;99969.31;4202160;28;20408;-67
2023/07/06 02:31:05;;;;;;;8.10;5.20;;;;;;;17.79;85.04;99963.19;4209638;28;20228;-67
2023/07/06 02:33:34;;;;;;;11.50;4.83;;;;;;;17.81;85.12;99977.53;4203064;28;20429;-65
2023/07/06 02:36:00;;;;;;;8.67;5.07;;;;;;;17.77;85.41;99976.25;4202753;28;20228;-65
2023/07/06 02:38:29;;;;;;;10.07;4.73;;;;;;;17.80;85.16;99978.56;4210288;28;20228;-65
2023/07/06 02:40:57;;;;;;;8.23;4.77;;;;;;;18.00;84.30;99977.78;4212209;28;22768;-66
2023/07/06 02:43:25;;;;;;;7.97;4.73;;;;;;;17.93;84.73;99979.66;4211199;28;21293;-66
2023/07/06 02:45:51;;;;;;;8.07;4.67;;;;;;;18.09;83.77;99978.47;4202220;28;20308;-66
2023/07/06 02:48:18;;;;;;;13.10;4.83;;;;;;;18.13;83.43;99977.81;4201698;28;21137;-64
2023/07/06 02:50:51;;;;;;;7.67;4.50;;;;;;;18.18;83.17;99978.06;4210715;28;21427;-66
2023/07/06 02:53:22;;;;;;;11.37;4.90;;;;;;;18.02;83.96;99979.28;4211214;28;20247;-67
2023/07/06 02:55:49;;;;;;;11.73;5.10;;;;;;;17.90;84.93;99994.59;4210138;28;20231;-67
2023/07/06 02:58:16;;;;;;;9.83;4.70;;;;;;;18.05;83.95;99997.22;4215515;28;20577;-66
2023/07/06 03:00:42;;;;;;;8.80;4.27;;;;;;;18.23;83.46;99996.59;4220662;28;22101;-64
2023/07/06 03:03:09;;;;;;;7.57;4.70;;;;;;;18.17;83.38;99995.53;4190203;28;20272;-68
2023/07/06 03:05:36;;;;;;;10.87;4.97;;;;;;;18.15;83.57;100002.28;4228431;28;20237;-68
2023/07/06 03:08:05;;;;;;;7.10;4.30;;;;;;;18.14;83.74;99989.63;4221665;28;20263;-67
2023/07/06 03:10:32;;;;;;;6.83;4.40;;;;;;;18.19;83.70;99989.84;4217297;28;20241;-66
2023/07/06 03:12:59;;;;;;;10.13;4.70;;;;;;;18.18;83.60;99999.97;4208985;28;21070;-68
2023/07/06 03:15:28;;;;;;;10.53;5.00;;;;;;;18.14;84.35;100014.28;4217463;28;20248;-65
2023/07/06 03:17:55;;;;;;;6.97;4.57;;;;;;;18.11;84.41;100017.44;4210283;28;20951;-64
2023/07/06 03:20:22;;;;;;;9.23;4.77;;;;;;;18.03;84.59;100016.56;4212330;28;20238;-67
2023/07/06 03:22:53;;;;;;;9.27;5.10;;;;;;;17.91;85.31;100020.94;4210058;28;20237;-66
2023/07/06 03:25:23;;;;;;;11.37;5.23;;;;;;;17.86;85.82;100017.97;4205165;28;21166;-66
2023/07/06 03:27:50;;;;;;;8.07;5.10;;;;;;;17.82;86.10;100020.28;4210496;28;20279;-67
2023/07/06 03:30:20;;;;;;;9.43;5.33;;;;;;;17.98;85.50;100018.22;4213316;28;20232;-64
2023/07/06 03:32:46;;;;;;;10.27;5.73;;;;;;;17.83;86.26;100019.22;4207398;28;20231;-63
2023/07/06 03:35:14;;;;;;;13.13;6.00;;;;;;;17.86;86.18;100020.72;4211184;28;20236;-65
2023/07/06 03:37:48;;;;;;;12.93;5.87;;;;;;;17.80;86.99;100016.03;4222394;28;20299;-64
2023/07/06 03:40:14;;;;;;;16.50;5.97;;;;;;;17.72;87.54;100025.28;4226605;28;22026;-65
2023/07/06 03:42:44;;;;;;;12.43;6.30;;;;;;;17.75;87.63;100027.59;4206148;28;22922;-64
2023/07/06 03:45:13;;;;;;;14.00;6.10;;;;;;;17.76;87.81;100031.19;4211359;28;20300;-64
2023/07/06 03:47:45;;;;;;;13.13;5.97;;;;;;;17.73;87.60;100038.78;4226163;28;21019;-64
2023/07/06 03:50:14;;;;;;;18.00;6.67;;;;;;;17.72;88.20;100047.19;4227458;28;20258;-66
2023/07/06 03:52:42;;;;;;;10.83;6.10;;;;;;;17.80;88.04;100044.28;4209273;28;20252;-65
2023/07/06 03:55:14;;;;;;;13.27;6.17;;;;;;;17.78;88.02;100042.81;4230240;28;20869;-64
2023/07/06 03:57:43;;;;;;;15.00;6.83;;;;;;;17.84;87.76;100037.34;4254911;28;23085;-64
2023/07/06 04:00:30;;;;;;;16.50;5.60;;;;;;;17.77;88.21;100039.19;4215219;28;23602;-66
2023/07/06 04:02:58;;;;;;;13.10;6.63;;;;;;;17.88;87.52;100040.50;4206450;28;20235;-63
2023/07/06 04:05:32;;;;;;;16.67;6.10;;;;;;;17.85;88.00;100041.75;4231014;28;20235;-64
2023/07/06 04:08:03;;;;;;;12.13;5.77;;;;;;;17.91;87.97;100051.06;4225343;28;21635;-66
2023/07/06 04:10:31;;;;;;;19.07;6.40;;;;;;;17.96;87.39;100048.56;4221830;28;21157;-65
2023/07/06 04:12:58;;;;;;;18.80;7.03;;;;;;;17.92;87.58;100043.69;4227115;28;20530;-65
2023/07/06 04:15:25;;;;;;;12.40;6.40;;;;;;;17.92;87.88;100052.75;4239778;28;21104;-66
2023/07/06 04:17:55;;;;;;;14.73;6.30;;;;;;;17.84;88.42;100055.66;4220039;28;20673;-65
2023/07/06 04:20:24;;;;;;;14.13;6.97;;;;;;;17.90;88.36;100065.78;4214210;28;21060;-66
2023/07/06 04:22:55;;;;;;;14.63;7.23;;;;;;;17.78;88.98;100064.72;4215388;28;21834;-63
2023/07/06 04:25:26;;;;;;;17.63;7.43;;;;;;;17.86;88.30;100059.88;4228698;28;21705;-65
2023/07/06 04:27:54;;;;;;;19.50;7.47;;;;;;;17.99;87.94;100066.47;4227335;28;20232;-64
2023/07/06 04:30:20;;;;;;;18.03;7.77;;;;;;;17.96;87.93;100062.25;4211476;28;20242;-65
2023/07/06 04:32:48;;;;;;;14.30;7.73;;;;;;;17.91;88.57;100062.00;4215355;28;22249;-67
2023/07/06 04:35:22;;;;;;;16.90;6.73;;;;;;;18.14;87.83;100066.34;4250719;28;20236;-64
2023/07/06 04:37:50;;;;;;;13.73;7.57;;;;;;;18.00;88.17;100060.81;4213473;28;20606;-64
2023/07/06 04:40:21;;;;;;;13.63;7.03;;;;;;;18.18;87.55;100065.72;4209286;28;20283;-65
2023/07/06 04:42:50;;;;;;;14.43;7.47;;;;;;;18.06;87.73;100056.38;4213558;28;20243;-65
2023/07/06 04:45:18;;;;;;;15.63;7.47;;;;;;;18.20;87.35;100055.38;4217433;28;21224;-64
2023/07/06 04:47:46;;;;;;;17.13;7.70;;;;;;;18.29;86.44;100077.09;4225083;28;20243;-67
2023/07/06 04:50:22;;;;;;;12.50;6.70;;;;;;;18.19;86.96;100080.25;4215275;28;21783;-72
2023/07/06 04:52:55;;;;;;;13.07;6.43;;;;;;;18.35;86.01;100082.59;4215287;28;21363;-73
2023/07/06 04:55:23;;;;;;;15.47;7.47;;;;;;;18.33;85.94;100081.13;4226701;28;20548;-70
2023/07/06 04:57:51;;;;;;;18.03;6.00;;;;;;;18.28;86.29;100080.91;4203628;28;20558;-72
2023/07/06 05:00:28;;;;;;;16.43;7.57;;;;;;;18.27;86.35;100080.06;4215083;28;20228;-72
2023/07/06 05:03:00;;;;;;;12.17;6.40;;;;;;;18.48;85.30;100084.53;4206325;28;20235;-71
2023/07/06 05:05:31;;;;;;;15.40;6.23;;;;;;;18.36;85.93;100083.44;4219795;28;22444;-73
2023/07/06 05:07:58;;;;;;;15.50;6.43;;;;;;;18.55;85.06;100083.69;4193976;28;22022;-72
2023/07/06 05:10:26;;;;;;;15.83;6.03;;;;;;;18.69;84.93;100091.72;4201693;28;22301;-72
2023/07/06 05:12:53;;;;;;;15.30;6.13;;;;;;;18.80;83.73;100095.75;4207356;28;20248;-72
2023/07/06 05:15:20;;;;;;;15.77;6.00;;;;;;;18.77;84.43;100104.38;4198123;28;20781;-71
2023/07/06 05:17:47;;;;;;;16.27;6.07;;;;;;;18.74;84.44;100112.19;4221549;28;20319;-73
2023/07/06 05:20:14;;;;;;;11.70;6.17;;;;;;;18.67;84.16;100115.78;4215887;28;20234;-71
2023/07/06 05:22:48;;;;;;;14.90;6.37;;;;;;;18.75;84.10;100114.72;4204455;28;20955;-73
2023/07/06 05:25:19;;;;;;;14.47;6.63;;;;;;;18.82;83.67;100103.75;4214248;28;20232;-72
2023/07/06 05:27:47;;;;;;;10.40;6.40;;;;;;;18.86;83.31;100110.50;4216057;28;20678;-73
2023/07/06 05:30:14;;;;;;;11.97;6.27;;;;;;;19.07;83.24;100116.88;4214685;28;20271;-72
2023/07/06 05:32:41;;;;;;;17.07;6.20;;;;;;;19.43;80.82;100126.56;4213434;28;20229;-70
2023/07/06 05:35:09;;;;;;;13.73;6.87;;;;;;;19.54;81.00;100117.66;4210416;28;23149;-71
2023/07/06 05:37:36;;;;;;;9.73;6.10;;;;;;;20.14;78.92;100121.31;4222983;28;20250;-71
2023/07/06 05:40:06;;;;;;;10.53;5.90;;;;;;;20.64;76.39;100117.84;4199512;28;20440;-71
2023/07/06 05:42:33;;;;;;;11.53;6.40;;;;;;;21.02;74.56;100127.97;4221719;28;20239;-69
2023/07/06 05:45:00;;;;;;;12.57;6.00;;;;;;;20.51;75.59;100121.53;4227090;28;21986;-69
2023/07/06 05:47:27;;;;;;;12.80;6.47;;;;;;;20.11;77.44;100128.09;4204096;28;20262;-70
2023/07/06 05:49:54;;;;;;;9.50;5.97;;;;;;;19.98;78.77;100111.66;4198422;28;22997;-70
2023/07/06 05:52:20;;;;;;;11.10;5.93;;;;;;;20.11;78.14;100128.09;4202836;28;20284;-70
2023/07/06 05:54:47;;;;;;;12.03;6.67;;;;;;;20.26;77.57;100138.78;4219992;28;20244;-72
2023/07/06 05:57:16;;;;;;;15.82;7.22;;;;;;;20.16;77.27;100138.44;4213836;28;20305;-70
2023/07/06 05:59:45;;;;;;;15.50;6.87;;;;;;;20.29;77.25;100157.59;4199013;28;20228;-69
2023/07/06 06:02:16;;;;;;;12.80;6.37;;;;;;;20.36;77.33;100152.91;4212628;28;21842;-70
2023/07/06 06:04:43;;;;;;;16.33;6.63;;;;;;;20.10;78.09;100154.69;4215048;28;20839;-71
2023/07/06 06:07:09;;;;;;;14.93;6.97;;;;;;;20.28;76.96;100155.91;4209439;28;20285;-71
2023/07/06 06:09:36;;;;;;;18.57;7.03;;;;;;;19.61;79.76;100159.66;4210399;28;20228;-71
2023/07/06 06:12:04;;;;;;;13.77;7.00;;;;;;;19.79;79.28;100169.97;4201449;28;20311;-70
2023/07/06 06:14:32;;;;;;;16.10;7.63;;;;;;;19.99;78.78;100168.28;4214856;28;23560;-71
2023/07/06 06:16:58;;;;;;;15.97;7.43;;;;;;;20.33;77.78;100178.06;4225566;28;23506;-70
2023/07/06 06:19:27;;;;;;;13.50;6.63;;;;;;;20.40;77.50;100181.63;4210058;28;20653;-72
2023/07/06 06:21:54;;;;;;;17.40;7.07;;;;;;;20.07;78.33;100181.78;4199701;28;20244;-70
2023/07/06 06:24:22;;;;;;;14.93;7.23;;;;;;;20.47;76.75;100189.03;4213692;28;21278;-69
2023/07/06 06:26:49;;;;;;;11.77;6.63;;;;;;;20.27;77.37;100190.81;4205088;28;20322;-73
2023/07/06 06:29:17;;;;;;;14.87;7.00;;;;;;;20.34;76.62;100192.69;4206970;28;20230;-69
2023/07/06 06:31:44;;;;;;;10.77;6.60;;;;;;;20.54;76.02;100192.59;4233081;28;20278;-70
2023/07/06 06:34:11;;;;;;;20.13;7.63;;;;;;;21.53;72.17;100190.22;4217249;28;20239;-75
2023/07/06 06:36:38;;;;;;;12.50;6.47;;;;;;;22.24;69.10;100194.59;4209293;28;20440;-76
2023/07/06 06:39:05;;;;;;;11.27;5.70;;;;;;;22.60;68.03;100193.72;4206140;28;20757;-72
2023/07/06 06:41:31;;;;;;;11.40;5.70;;;;;;;23.22;65.82;100197.31;4227894;28;20238;-73
2023/07/06 06:43:58;;;;;;;12.37;5.60;;;;;;;24.12;63.49;100200.81;4235953;28;20237;-72
2023/07/06 06:46:25;;;;;;;9.90;5.63;;;;;;;25.14;59.21;100189.22;4230870;28;20283;-71
2023/07/06 06:48:52;;;;;;;12.68;5.72;;;;;;;26.72;54.21;100197.31;4231792;28;22084;-71
2023/07/06 06:51:18;;;;;;;12.13;5.10;;;;;;;25.72;56.34;100200.19;4231534;28;20239;-70
2023/07/06 06:53:46;;;;;;;9.50;5.50;;;;;;;26.20;55.12;100206.13;4219767;28;20229;-72
2023/07/06 06:56:13;;;;;;;13.18;4.95;;;;;;;25.43;55.94;100206.66;4236833;28;20238;-71
2023/07/06 06:58:41;;;;;;;9.90;4.90;;;;;;;25.26;56.78;100212.16;4202286;28;20849;-73
2023/07/06 07:01:10;;;;;;;12.02;4.80;;;;;;;24.77;57.67;100220.13;4214743;28;20317;-74
2023/07/06 07:03:37;;;;;;;8.48;4.70;;;;;;;25.87;54.45;100218.94;4235515;28;20377;-73
2023/07/06 07:06:13;;;;;;;8.52;5.15;;;;;;;24.94;56.82;100225.69;4280622;28;23884;-70
2023/07/06 07:08:42;;;;;;;12.45;5.15;;;;;;;23.84;59.02;100218.97;4247502;28;20873;-70
2023/07/06 07:11:10;;;;;;;11.87;5.30;;;;;;;23.51;60.59;100227.84;4251816;28;20230;-72
2023/07/06 07:13:51;;;;;;;13.20;5.15;;;;;;;24.48;56.93;100234.75;4245370;28;20607;-72
2023/07/06 07:16:23;;;;;;;14.52;5.20;;;;;;;25.54;53.14;100235.38;4260779;28;20254;-70
2023/07/06 07:18:50;;;;;;;8.90;5.13;;;;;;;26.41;49.21;100227.50;4222007;28;20236;-69
2023/07/06 07:21:19;;;;;;;13.27;4.60;;;;;;;26.30;49.23;100231.22;4239303;28;21884;-71
2023/07/06 07:23:48;;;;;;;12.18;4.60;;;;;;;27.49;46.24;100225.03;4248964;28;20567;-70
2023/07/06 07:26:21;;;;;;;6.95;4.60;;;;;;;27.63;45.62;100232.91;4209557;28;20240;-71
2023/07/06 07:28:48;;;;;;;10.60;4.20;;;;;;;27.87;44.47;100235.31;4254301;28;21208;-67
2023/07/06 07:31:17;;;;;;;8.80;4.25;;;;;;;27.64;44.79;100240.16;4270604;28;20231;-71
2023/07/06 07:33:49;;;;;;;15.05;4.30;;;;;;;27.09;45.28;100231.03;4229959;28;23888;-72
2023/07/06 07:36:18;;;;;;;7.57;3.83;;;;;;;26.66;46.64;100239.97;4272616;28;20982;-70
2023/07/06 07:38:47;;;;;;;9.10;3.72;;;;;;;26.63;45.81;100237.75;4251457;28;20229;-75
2023/07/06 07:41:18;;;;;;;10.13;3.95;;;;;;;27.06;44.95;100229.63;4219127;28;21873;-67
2023/07/06 07:43:48;;;;;;;4.78;3.20;;;;;;;26.77;44.12;100237.38;4227909;28;20279;-68
2023/07/06 07:46:17;;;;;;;10.25;3.50;;;;;;;27.32;42.31;100241.81;4263877;28;20224;-69
2023/07/06 07:48:46;;;;;;;7.80;3.10;;;;;;;26.27;43.79;100251.19;4252996;28;20590;-70
2023/07/06 07:51:21;;;;;;;7.00;3.05;;;;;;;26.30;43.38;100244.28;4220298;28;20424;-59
2023/07/06 07:53:48;;;;;;;14.40;3.60;;;;;;;26.24;43.76;100247.00;4237317;28;21702;-71
2023/07/06 07:56:15;;;;;;;10.48;3.30;;;;;;;27.02;42.68;100250.69;4216848;28;22085;-72
2023/07/06 07:58:48;;;;;;;7.95;3.15;;;;;;;27.00;42.82;100252.91;4230417;28;20268;-70
2023/07/06 08:01:24;;;;;;;9.85;3.92;;;;;;;26.30;44.97;100255.38;4217592;28;20235;-69
2023/07/06 08:03:54;;;;;;;8.25;3.42;;;;;;;26.35;45.20;100258.19;4206988;28;20239;-70
2023/07/06 08:06:22;;;;;;;7.97;3.63;;;;;;;25.81;45.62;100250.47;4255357;28;20336;-75
2023/07/06 08:08:50;;;;;;;7.40;2.90;;;;;;;26.21;43.69;100249.44;4277048;28;22091;-76
2023/07/06 08:11:22;;;;;;;11.65;3.47;;;;;;;26.15;44.25;100247.66;4259158;28;20745;-70
2023/07/06 08:13:51;;;;;;;6.13;2.90;;;;;;;25.36;45.24;100254.97;4211547;28;20232;-69
2023/07/06 08:16:20;;;;;;;11.70;3.47;;;;;;;25.96;42.91;100247.94;4218327;28;20269;-70
2023/07/06 08:18:49;;;;;;;10.10;3.20;;;;;;;25.00;44.58;100253.25;4215659;28;20229;-74
2023/07/06 08:21:25;;;;;;;7.80;3.20;;;;;;;25.59;42.96;100257.63;4235891;28;20333;-71
2023/07/06 08:24:10;;;;;;;9.85;3.03;;;;;;;26.18;41.80;100249.94;4212447;28;20734;-68
2023/07/06 08:26:38;;;;;;;6.60;3.25;;;;;;;25.42;43.52;100251.22;4213231;28;20555;-70
2023/07/06 08:29:04;;;;;;;9.25;3.03;;;;;;;24.76;45.32;100249.75;4204210;28;20256;-70
2023/07/06 08:31:31;;;;;;;4.70;3.20;;;;;;;25.63;44.37;100252.41;4214447;28;20255;-68
2023/07/06 08:34:00;;;;;;;6.55;3.40;;;;;;;26.09;42.92;100263.41;4226742;28;20390;-70
2023/07/06 08:36:27;;;;;;;6.22;2.88;;;;;;;26.28;43.11;100261.19;4210138;28;20502;-69
2023/07/06 08:38:56;;;;;;;7.40;3.10;;;;;;;25.57;43.50;100253.44;4231105;28;20376;-70
2023/07/06 08:41:29;;;;;;;10.87;3.13;;;;;;;25.59;43.40;100254.84;4236555;28;20235;-69
2023/07/06 08:44:00;;;;;;;9.20;2.85;;;;;;;25.61;42.48;100261.00;4205414;28;20234;-67
2023/07/06 08:46:34;;;;;;;5.80;2.65;;;;;;;25.23;42.70;100264.44;4220946;28;20236;-72
2023/07/06 08:49:01;;;;;;;5.07;2.65;;;;;;;25.34;43.46;100265.47;4209627;28;25640;-69
2023/07/06 08:51:31;;;;;;;5.93;2.50;;;;;;;25.93;42.24;100270.63;4237704;28;20319;-70
2023/07/06 08:54:01;;;;;;;5.45;2.70;;;;;;;26.10;41.34;100273.38;4225483;28;20231;-70
2023/07/06 08:56:29;;;;;;;7.15;2.50;;;;;;;26.13;41.05;100264.56;4237686;28;20295;-70
2023/07/06 08:58:57;;;;;;;9.63;2.42;;;;;;;25.79;41.45;100268.19;4201284;28;20654;-70
2023/07/06 09:01:24;;;;;;;6.22;2.63;;;;;;;25.56;42.24;100272.00;4216221;28;20228;-70
2023/07/06 09:03:56;;;;;;;6.75;2.40;;;;;;;25.60;42.00;100273.16;4211998;28;20239;-68
2023/07/06 09:06:26;;;;;;;7.88;2.80;;;;;;;24.83;42.44;100268.97;4217836;28;20390;-73
2023/07/06 09:08:55;;;;;;;9.10;2.83;;;;;;;25.07;42.03;100272.50;4222057;28;20792;-71
2023/07/06 09:11:25;;;;;;;7.07;2.78;;;;;;;25.29;41.58;100274.53;4243373;28;21760;-68
2023/07/06 09:13:56;;;;;;;6.32;2.85;;;;;;;25.55;41.54;100277.78;4211974;28;21569;-70
2023/07/06 09:16:25;;;;;;;4.97;3.00;;;;;;;25.43;42.31;100284.25;4212790;28;20593;-68
2023/07/06 09:18:53;;;;;;;8.88;2.90;;;;;;;25.30;41.86;100287.31;4223604;28;20422;-69
2023/07/06 09:21:25;;;;;;;7.20;2.60;;;;;;;25.05;43.02;100282.97;4251397;28;20239;-69
2023/07/06 09:23:53;;;;;;;11.50;3.05;;;;;;;24.71;43.65;100288.38;4210489;28;20232;-71
2023/07/06 09:26:28;;;;;;;7.05;2.83;;;;;;;25.29;42.24;100280.09;4214043;28;20547;-69
2023/07/06 09:29:22;;;;;;;3.90;2.40;;;;;;;24.87;43.38;100288.69;4218840;28;20239;-67
2023/07/06 09:31:49;;;;;;;15.02;3.50;;;;;;;24.86;42.53;100289.78;4215777;28;20232;-70
2023/07/06 09:34:25;;;;;;;10.57;2.93;;;;;;;24.83;42.88;100288.34;4208412;28;21792;-68
2023/07/06 09:36:52;;;;;;;9.27;3.28;;;;;;;25.58;41.76;100291.13;4208318;28;20237;-69
2023/07/06 09:39:21;;;;;;;12.40;2.92;;;;;;;24.81;42.96;100294.13;4225205;28;20235;-68
2023/07/06 09:41:47;;;;;;;6.53;2.75;;;;;;;25.08;42.44;100295.47;4187735;28;20270;-69
2023/07/06 09:44:24;;;;;;;5.25;2.47;;;;;;;25.29;41.70;100297.53;4227916;28;20312;-69
2023/07/06 09:46:51;;;;;;;9.68;2.50;;;;;;;25.22;40.98;100294.09;4250470;28;20720;-72
2023/07/06 09:49:20;;;;;;;6.35;2.45;;;;;;;25.31;41.47;100308.34;4234564;28;20248;-69
2023/07/06 09:51:55;;;;;;;12.50;2.83;;;;;;;25.39;40.54;100301.63;4225194;28;20363;-72
2023/07/06 09:54:33;;;;;;;13.10;3.42;;;;;;;24.82;42.03;100309.66;4205231;28;22361;-67
2023/07/06 09:57:08;;;;;;;6.00;2.87;;;;;;;25.09;40.58;100302.69;4210100;28;20422;-70
2023/07/06 09:59:36;;;;;;;6.80;2.65;;;;;;;24.97;40.53;100314.66;4222868;28;20238;-71
2023/07/06 10:02:41;;;;;;;9.52;2.80;;;;;;;24.83;41.27;100310.50;4220796;28;20228;-68
2023/07/06 10:05:21;;;;;;;6.75;2.42;;;;;;;24.48;41.81;100317.75;4214740;28;20236;-68
2023/07/06 10:07:58;;;;;;;8.95;2.47;;;;;;;24.73;41.06;100305.59;4254246;28;22643;-71
2023/07/06 10:10:48;;;;;;;6.90;2.95;;;;;;;24.96;41.01;100320.44;4217873;28;20279;-66
2023/07/06 10:13:24;;;;;;;4.23;2.27;;;;;;;24.40;42.51;100318.13;4216301;28;20237;-72
2023/07/06 10:15:59;;;;;;;11.93;2.78;;;;;;;25.27;41.30;100312.72;4218990;28;20337;-70
2023/07/06 10:18:41;;;;;;;4.67;2.30;;;;;;;25.47;39.78;100303.97;4204774;28;20229;-69
2023/07/06 10:21:18;;;;;;;11.07;2.53;;;;;;;25.54;40.19;100301.91;4199747;28;20232;-71
2023/07/06 10:23:54;;;;;;;6.25;2.15;;;;;;;24.99;40.47;100309.72;4218081;28;20255;-68
2023/07/06 10:26:32;;;;;;;5.97;2.30;;;;;;;24.75;41.44;100303.44;4214062;28;20330;-71
2023/07/06 10:29:09;;;;;;;7.78;2.38;;;;;;;25.00;40.20;100308.63;4226506;28;20257;-69
2023/07/06 10:31:44;;;;;;;9.50;2.78;;;;;;;24.72;41.30;100300.31;4215965;28;20615;-69
2023/07/06 10:34:17;;;;;;;4.95;2.20;;;;;;;25.04;41.70;100297.91;4190227;28;21558;-69
2023/07/06 10:36:44;;;;;;;8.67;2.30;;;;;;;25.43;39.79;100300.88;4214048;28;20318;-70
2023/07/06 10:39:23;;;;;;;6.88;2.72;;;;;;;25.83;38.13;100301.81;4224052;28;20300;-72
2023/07/06 10:42:00;;;;;;;13.25;2.70;;;;;;;25.27;37.95;100305.25;4242832;28;21519;-67
2023/07/06 10:44:44;;;;;;;6.20;2.33;;;;;;;25.85;39.03;100301.53;4217435;28;20228;-71
2023/07/06 10:47:33;;;;;;;5.28;2.03;;;;;;;25.74;38.77;100306.09;4233125;28;20402;-68
2023/07/06 10:50:08;;;;;;;7.55;2.10;;;;;;;25.53;38.59;100302.97;4229122;28;20451;-67
2023/07/06 10:52:37;;;;;;;4.55;1.90;;;;;;;25.91;38.29;100308.84;4225637;28;20235;-68
2023/07/06 10:55:30;;;;;;;6.28;2.25;;;;;;;26.15;36.80;100303.16;4223144;28;21203;-70
2023/07/06 10:58:21;;;;;;;8.15;2.40;;;;;;;26.26;35.69;100316.09;4261333;28;20453;-71
2023/07/06 11:00:48;;;;;;;8.90;2.10;;;;;;;26.49;34.93;100301.13;4204704;28;20238;-71
2023/07/06 11:03:22;;;;;;;9.40;2.17;;;;;;;25.95;36.67;100307.28;4209701;28;22003;-72
2023/07/06 11:06:37;;;;;;;8.60;2.15;;;;;;;25.60;36.14;100317.50;4230954;28;21092;-70
2023/07/06 11:09:16;;;;;;;10.15;2.70;;;;;;;25.19;37.81;100313.13;4255927;28;23750;-69
2023/07/06 11:12:04;;;;;;;8.93;2.38;;;;;;;25.58;37.50;100322.47;4219342;28;20232;-69
2023/07/06 11:14:35;;;;;;;7.00;2.55;;;;;;;24.95;38.18;100329.84;4230147;28;20236;-68
2023/07/06 11:17:30;;;;;;;6.55;2.30;;;;;;;25.56;37.10;100321.03;4241308;28;21703;-71
2023/07/06 11:20:01;;;;;;;6.45;2.25;;;;;;;25.83;36.88;100321.22;4219503;28;20464;-71
2023/07/06 11:22:29;;;;;;;7.72;2.30;;;;;;;25.63;36.36;100322.56;4229850;28;20238;-71
2023/07/06 11:24:59;;;;;;;11.52;2.60;;;;;;;24.86;38.44;100336.84;4226368;28;20308;-69
2023/07/06 11:27:29;;;;;;;5.00;2.45;;;;;;;25.27;36.82;100329.34;4230230;28;20367;-72
2023/07/06 11:30:18;;;;;;;4.55;1.95;;;;;;;24.95;36.03;100338.13;4221588;28;20597;-73
2023/07/06 11:32:45;;;;;;;3.63;2.20;;;;;;;24.94;37.20;100342.84;4200139;28;20238;-72
2023/07/06 11:35:28;;;;;;;5.67;2.53;;;;;;;24.83;37.07;100329.88;4229916;28;20534;-70
2023/07/06 11:38:13;;;;;;;6.38;2.30;;;;;;;24.77;37.17;100340.00;4224128;28;20232;-71
2023/07/06 11:40:49;;;;;;;6.32;2.00;;;;;;;24.67;37.81;100337.84;4207454;28;21044;-71
2023/07/06 11:43:22;;;;;;;8.75;2.33;;;;;;;24.56;38.05;100349.75;4228663;28;20761;-69